Terminal Aerodrome Forecast
Issued by NWS

Home | Current Version | Previous Version | Text Only | Print | Product List | Glossary On
Versions: 1 2 3 4 5 6 7 8 9 10 11 12 13
000
FTUS45 KTFX 231131
TAFGTF
TAF
KGTF 231131Z 2312/2412 22007KT P6SM SKC
     FM231800 25011G20KT 6SM FU FEW100 SCT200
     FM240200 22009KT P6SM SCT100 BKN200=

USA.gov is the U.S. government's official web portal to all federal, state and local government web resources and services.